Petrel — FGA7362 — position and weather

sailwx.info

Track history (hours):
 
Tides and Currents Weather Stations Pressure Air Temp Water Temp Dewpoint Dewpoint Depression Visibility Wind Speed Wind Dir Waves Ship Positions

Petrel

Last reported at 2018-Jun-20 05:30 UTC. Time now 2018-Jun-20 05:48 UTC.
Position N 48°22' W 004°47'.

Length 27 m; draft 1.8 m.

Type: Passenger vessel. MMSI: 227009960.

Date/timePositionNaut miles runAvg speedWind from/ knotsBaromVisibWave heightAir tempDewpointWater temp
2018-Jun-20 05:30N 48°22' W 004°47'713.7
2018-Jun-20 05:00N 48°20' W 004°37'611.6
2018-Jun-20 04:30N 48°23' W 004°29'0 0.0
2018-Jun-18 17:29N 48°23' W 004°29'918.7
2018-Jun-18 17:01N 48°20' W 004°42'611.8
2018-Jun-18 16:30N 48°23' W 004°49'1121.3
2018-Jun-18 16:00N 48°28' W 005°03'4 7.7
2018-Jun-18 15:31N 48°26' W 004°58'5 9.7
2018-Jun-18 15:00N 48°24' W 004°52'4 6.9
2018-Jun-18 14:24N 48°22' W 004°47'0 0.0
2018-Jun-18 14:00N 48°22' W 004°47'0 0.0
2018-Jun-18 13:29N 48°22' W 004°47'0 0.0
2018-Jun-18 12:58N 48°22' W 004°47'0 0.0
2018-Jun-18 12:30N 48°22' W 004°47'0 0.0
2018-Jun-18 11:54N 48°22' W 004°47'0 0.0
2018-Jun-18 11:30N 48°22' W 004°47'0 0.0
2018-Jun-18 11:00N 48°22' W 004°47'0 0.0
2018-Jun-18 10:30N 48°22' W 004°47'0 0.0
2018-Jun-18 10:00N 48°22' W 004°47'0 0.0
2018-Jun-18 09:30N 48°22' W 004°47'0 0.0
2018-Jun-18 09:00N 48°22' W 004°47'4 8.9
2018-Jun-18 08:31N 48°23' W 004°53'714.2
2018-Jun-18 08:00N 48°28' W 005°01'2 3.2
2018-Jun-18 07:30N 48°27' W 004°59'713.8
2018-Jun-18 07:00N 48°23' W 004°51'611.0
2018-Jun-18 06:30N 48°19' W 004°44'1020.6
2018-Jun-18 06:00N 48°22' W 004°29'1 0.1
2018-Jun-17 18:36N 48°23' W 004°29'0 2.1
2018-Jun-17 18:30N 48°23' W 004°29'1121.5
2018-Jun-17 18:01N 48°19' W 004°44'611.1
2018-Jun-17 17:31N 48°24' W 004°50'611.3
2018-Jun-17 17:00N 48°26' W 004°58'4 8.5
2018-Jun-17 16:30N 48°28' W 005°03'4 7.1
2018-Jun-17 16:00N 48°26' W 004°59'612.6
2018-Jun-17 15:31N 48°24' W 004°50'3 6.1
2018-Jun-17 15:00N 48°22' W 004°47'4 7.2
2018-Jun-17 14:30N 48°24' W 004°51'918.4
2018-Jun-17 14:00N 48°28' W 005°03'0 0.1
2018-Jun-17 13:31N 48°28' W 005°03'0 0.0
2018-Jun-17 13:01N 48°28' W 005°03'0 0.0
2018-Jun-17 12:31N 48°28' W 005°03'0 0.0
2018-Jun-17 12:01N 48°28' W 005°03'0 0.0
2018-Jun-17 11:31N 48°28' W 005°03'0 0.0
2018-Jun-17 11:01N 48°28' W 005°03'0 0.0
2018-Jun-17 10:31N 48°28' W 005°03'1 2.7
2018-Jun-17 10:01N 48°28' W 005°01'713.5
2018-Jun-17 09:30N 48°24' W 004°53'5 7.4
2018-Jun-17 08:50N 48°22' W 004°47'516.1
2018-Jun-17 08:31N 48°24' W 004°54'713.8
2018-Jun-17 08:00N 48°28' W 005°02'2 4.2
2018-Jun-17 07:31N 48°27' W 004°59'1019.5
2018-Jun-17 07:00N 48°22' W 004°47'3 5.5
2018-Jun-17 06:31N 48°19' W 004°44'1020.2
2018-Jun-17 06:00N 48°22' W 004°29'1 1.5
2018-Jun-17 05:30N 48°23' W 004°29'0 0.0
2018-Jun-16 11:52N 48°23' W 004°29'0 0.0
2018-Jun-16 11:30N 48°23' W 004°29'0 0.0
2018-Jun-16 11:00N 48°23' W 004°29'0 0.0
2018-Jun-16 10:30N 48°23' W 004°29'0 0.4
2018-Jun-16 10:01N 48°23' W 004°29'918.4
2018-Jun-16 09:31N 48°20' W 004°42'4 7.3
2018-Jun-16 09:00N 48°22' W 004°47'611.6
2018-Jun-16 08:30N 48°24' W 004°54'612.4
2018-Jun-16 08:01N 48°28' W 005°01'3 5.2
2018-Jun-16 07:31N 48°27' W 004°59'918.4
2018-Jun-16 07:00N 48°22' W 004°47'4 8.2
2018-Jun-16 06:30N 48°20' W 004°41'917.6
2018-Jun-16 06:00N 48°23' W 004°29'0 0.2
2018-Jun-16 05:30N 48°23' W 004°29'0 0.0
2018-Jun-15 08:00N 48°23' W 004°29'714.5
2018-Jun-15 07:30N 48°20' W 004°39'611.2
2018-Jun-15 07:00N 48°22' W 004°47'715.0
2018-Jun-15 06:30N 48°25' W 004°57'510.6
2018-Jun-15 06:00N 48°28' W 005°03'4 7.3
2018-Jun-15 05:30N 48°26' W 004°58'1020.6
2018-Jun-15 05:00N 48°20' W 004°47'1020.5
2018-Jun-15 04:30N 48°21' W 004°32'2 0.2
2018-Jun-14 17:55N 48°23' W 004°29'614.2
2018-Jun-14 17:30N 48°19' W 004°35'4 8.8
2018-Jun-14 17:01N 48°18' W 004°42'714.3
2018-Jun-14 16:30N 48°23' W 004°51'1019.6
2018-Jun-14 16:00N 48°28' W 005°03'1 3.0
2018-Jun-14 15:30N 48°28' W 005°01'713.4
2018-Jun-14 15:00N 48°23' W 004°53'5 9.4
2018-Jun-14 14:30N 48°22' W 004°47'0 0.0
2018-Jun-14 14:00N 48°22' W 004°47'0 0.0
2018-Jun-14 13:30N 48°22' W 004°47'0 0.0
2018-Jun-14 13:00N 48°22' W 004°47'0 0.0
2018-Jun-14 12:30N 48°22' W 004°47'0 0.0
2018-Jun-14 12:00N 48°22' W 004°47'0 0.0
2018-Jun-14 11:30N 48°22' W 004°47'0 0.0
2018-Jun-14 11:00N 48°22' W 004°47'0 0.0
2018-Jun-14 10:30N 48°22' W 004°47'0 0.0
2018-Jun-14 10:00N 48°22' W 004°47'0 0.0
2018-Jun-14 09:30N 48°22' W 004°47'0 0.0
2018-Jun-14 09:00N 48°22' W 004°47'713.5
2018-Jun-14 08:30N 48°25' W 004°56'611.7
2018-Jun-14 08:01N 48°28' W 005°03'4 8.3
2018-Jun-14 07:30N 48°26' W 004°58'816.7
2018-Jun-14 07:00N 48°22' W 004°47'612.4
2018-Jun-14 06:31N 48°18' W 004°39'3 5.7
2018-Jun-14 06:00N 48°17' W 004°35'815.1
2018-Jun-14 05:30N 48°23' W 004°29'0 0.0
2018-Jun-13 08:54N 48°23' W 004°29'4 9.1
2018-Jun-13 08:31N 48°21' W 004°34'2 4.4
2018-Jun-13 08:00N 48°20' W 004°37'713.6
2018-Jun-13 07:30N 48°22' W 004°47'714.9
2018-Jun-13 07:00N 48°24' W 004°57'510.7
2018-Jun-13 06:30N 48°28' W 005°03'510.1
2018-Jun-13 06:01N 48°27' W 004°56'816.1
2018-Jun-13 05:30N 48°22' W 004°47'715.1
2018-Jun-13 05:01N 48°20' W 004°36'510.1
2018-Jun-13 04:30N 48°23' W 004°29'0 0.0
2018-Jun-11 17:30N 48°23' W 004°29'815.7
2018-Jun-11 17:01N 48°20' W 004°40'713.6
2018-Jun-11 16:31N 48°23' W 004°49'1121.2
2018-Jun-11 15:59N 48°28' W 005°03'2 4.1
2018-Jun-11 15:31N 48°28' W 005°00'612.9
2018-Jun-11 15:00N 48°23' W 004°53'5 9.1
2018-Jun-11 14:30N 48°22' W 004°47'0 0.0
2018-Jun-11 14:00N 48°22' W 004°47'0 0.0
2018-Jun-11 13:30N 48°22' W 004°47'0 0.0
2018-Jun-11 13:00N 48°22' W 004°47'0 0.0
2018-Jun-11 12:30N 48°22' W 004°47'0 0.0
2018-Jun-11 12:00N 48°22' W 004°47'0 0.0
2018-Jun-11 11:30N 48°22' W 004°47'0 0.0
2018-Jun-11 11:00N 48°22' W 004°47'0 0.0
2018-Jun-11 10:30N 48°22' W 004°47'0 0.0
2018-Jun-11 10:00N 48°22' W 004°47'0 0.0
2018-Jun-11 09:30N 48°22' W 004°47'0 0.0
2018-Jun-11 09:00N 48°22' W 004°47'611.4
2018-Jun-11 08:30N 48°24' W 004°54'612.1
2018-Jun-11 08:00N 48°28' W 005°01'3 5.9
2018-Jun-11 07:30N 48°26' W 004°58'713.3
2018-Jun-11 07:00N 48°23' W 004°49'2 4.4
2018-Jun-11 06:31N 48°21' W 004°47'1019.2
2018-Jun-11 06:01N 48°21' W 004°33'3 5.8
2018-Jun-11 05:31N 48°23' W 004°29'0 0.0
2018-Jun-11 05:01N 48°23' W 004°29'0 0.0
2018-Jun-10 18:46N 48°23' W 004°29'1 2.7
2018-Jun-10 18:30N 48°22' W 004°29'1020.6
2018-Jun-10 18:01N 48°19' W 004°44'611.2
2018-Jun-10 17:30N 48°23' W 004°50'510.6
2018-Jun-10 17:01N 48°26' W 004°57'5 7.9
2018-Jun-10 16:25N 48°28' W 005°03'4 9.7
2018-Jun-10 16:01N 48°26' W 004°58'612.3
2018-Jun-10 15:30N 48°23' W 004°50'3 5.4
2018-Jun-10 15:01N 48°22' W 004°47'3 6.8
2018-Jun-10 14:30N 48°24' W 004°50'10 9.5
2018-Jun-10 13:30N 48°28' W 005°03'0 0.0
2018-Jun-10 13:00N 48°28' W 005°03'0 0.0
2018-Jun-10 12:30N 48°28' W 005°03'0 0.0
2018-Jun-10 12:00N 48°28' W 005°03'0 0.0
2018-Jun-10 11:30N 48°28' W 005°03'0 0.0
2018-Jun-10 11:00N 48°28' W 005°03'0 0.0
2018-Jun-10 10:30N 48°28' W 005°03'2 4.2
2018-Jun-10 10:01N 48°28' W 005°00'612.0
2018-Jun-10 09:31N 48°24' W 004°53'5 9.5
2018-Jun-10 09:00N 48°22' W 004°47'613.0
2018-Jun-10 08:30N 48°24' W 004°55'611.6
2018-Jun-10 08:01N 48°28' W 005°02'3 5.7
2018-Jun-10 07:31N 48°27' W 004°58'918.8
2018-Jun-10 07:01N 48°22' W 004°47'2 4.8
2018-Jun-10 06:31N 48°19' W 004°46'1122.3
2018-Jun-10 06:01N 48°22' W 004°30'  
Track history (hours):
 
Tides and Currents Weather Stations Pressure Air Temp Water Temp Dewpoint Dewpoint Depression Visibility Wind Speed Wind Dir Waves Ship Positions

Petrel

Last reported at 2018-Jun-20 05:30 UTC. Time now 2018-Jun-20 05:48 UTC.
Position N 48°22' W 004°47'.

Length 27 m; draft 1.8 m.

Type: Passenger vessel. MMSI: 227009960.

Date/timePositionNaut miles runAvg speedWind from/ knotsBaromVisibWave heightAir tempDewpointWater temp
2018-Jun-20 05:30N 48°22' W 004°47'713.7
2018-Jun-20 05:00N 48°20' W 004°37'611.6
2018-Jun-20 04:30N 48°23' W 004°29'0 0.0
2018-Jun-18 17:29N 48°23' W 004°29'918.7
2018-Jun-18 17:01N 48°20' W 004°42'611.8
2018-Jun-18 16:30N 48°23' W 004°49'1121.3
2018-Jun-18 16:00N 48°28' W 005°03'4 7.7
2018-Jun-18 15:31N 48°26' W 004°58'5 9.7
2018-Jun-18 15:00N 48°24' W 004°52'4 6.9
2018-Jun-18 14:24N 48°22' W 004°47'0 0.0
2018-Jun-18 14:00N 48°22' W 004°47'0 0.0
2018-Jun-18 13:29N 48°22' W 004°47'0 0.0
2018-Jun-18 12:58N 48°22' W 004°47'0 0.0
2018-Jun-18 12:30N 48°22' W 004°47'0 0.0
2018-Jun-18 11:54N 48°22' W 004°47'0 0.0
2018-Jun-18 11:30N 48°22' W 004°47'0 0.0
2018-Jun-18 11:00N 48°22' W 004°47'0 0.0
2018-Jun-18 10:30N 48°22' W 004°47'0 0.0
2018-Jun-18 10:00N 48°22' W 004°47'0 0.0
2018-Jun-18 09:30N 48°22' W 004°47'0 0.0
2018-Jun-18 09:00N 48°22' W 004°47'4 8.9
2018-Jun-18 08:31N 48°23' W 004°53'714.2
2018-Jun-18 08:00N 48°28' W 005°01'2 3.2
2018-Jun-18 07:30N 48°27' W 004°59'713.8
2018-Jun-18 07:00N 48°23' W 004°51'611.0
2018-Jun-18 06:30N 48°19' W 004°44'1020.6
2018-Jun-18 06:00N 48°22' W 004°29'1 0.1
2018-Jun-17 18:36N 48°23' W 004°29'0 2.1
2018-Jun-17 18:30N 48°23' W 004°29'1121.5
2018-Jun-17 18:01N 48°19' W 004°44'611.1
2018-Jun-17 17:31N 48°24' W 004°50'611.3
2018-Jun-17 17:00N 48°26' W 004°58'4 8.5
2018-Jun-17 16:30N 48°28' W 005°03'4 7.1
2018-Jun-17 16:00N 48°26' W 004°59'612.6
2018-Jun-17 15:31N 48°24' W 004°50'3 6.1
2018-Jun-17 15:00N 48°22' W 004°47'4 7.2
2018-Jun-17 14:30N 48°24' W 004°51'918.4
2018-Jun-17 14:00N 48°28' W 005°03'0 0.1
2018-Jun-17 13:31N 48°28' W 005°03'0 0.0
2018-Jun-17 13:01N 48°28' W 005°03'0 0.0
2018-Jun-17 12:31N 48°28' W 005°03'0 0.0
2018-Jun-17 12:01N 48°28' W 005°03'0 0.0
2018-Jun-17 11:31N 48°28' W 005°03'0 0.0
2018-Jun-17 11:01N 48°28' W 005°03'0 0.0
2018-Jun-17 10:31N 48°28' W 005°03'1 2.7
2018-Jun-17 10:01N 48°28' W 005°01'713.5
2018-Jun-17 09:30N 48°24' W 004°53'5 7.4
2018-Jun-17 08:50N 48°22' W 004°47'516.1
2018-Jun-17 08:31N 48°24' W 004°54'713.8
2018-Jun-17 08:00N 48°28' W 005°02'2 4.2
2018-Jun-17 07:31N 48°27' W 004°59'1019.5
2018-Jun-17 07:00N 48°22' W 004°47'3 5.5
2018-Jun-17 06:31N 48°19' W 004°44'1020.2
2018-Jun-17 06:00N 48°22' W 004°29'1 1.5
2018-Jun-17 05:30N 48°23' W 004°29'0 0.0
2018-Jun-16 11:52N 48°23' W 004°29'0 0.0
2018-Jun-16 11:30N 48°23' W 004°29'0 0.0
2018-Jun-16 11:00N 48°23' W 004°29'0 0.0
2018-Jun-16 10:30N 48°23' W 004°29'0 0.4
2018-Jun-16 10:01N 48°23' W 004°29'918.4
2018-Jun-16 09:31N 48°20' W 004°42'4 7.3
2018-Jun-16 09:00N 48°22' W 004°47'611.6
2018-Jun-16 08:30N 48°24' W 004°54'612.4
2018-Jun-16 08:01N 48°28' W 005°01'3 5.2
2018-Jun-16 07:31N 48°27' W 004°59'918.4
2018-Jun-16 07:00N 48°22' W 004°47'4 8.2
2018-Jun-16 06:30N 48°20' W 004°41'917.6
2018-Jun-16 06:00N 48°23' W 004°29'0 0.2
2018-Jun-16 05:30N 48°23' W 004°29'0 0.0
2018-Jun-15 08:00N 48°23' W 004°29'714.5
2018-Jun-15 07:30N 48°20' W 004°39'611.2
2018-Jun-15 07:00N 48°22' W 004°47'715.0
2018-Jun-15 06:30N 48°25' W 004°57'510.6
2018-Jun-15 06:00N 48°28' W 005°03'4 7.3
2018-Jun-15 05:30N 48°26' W 004°58'1020.6
2018-Jun-15 05:00N 48°20' W 004°47'1020.5
2018-Jun-15 04:30N 48°21' W 004°32'2 0.2
2018-Jun-14 17:55N 48°23' W 004°29'614.2
2018-Jun-14 17:30N 48°19' W 004°35'4 8.8
2018-Jun-14 17:01N 48°18' W 004°42'714.3
2018-Jun-14 16:30N 48°23' W 004°51'1019.6
2018-Jun-14 16:00N 48°28' W 005°03'1 3.0
2018-Jun-14 15:30N 48°28' W 005°01'713.4
2018-Jun-14 15:00N 48°23' W 004°53'5 9.4
2018-Jun-14 14:30N 48°22' W 004°47'0 0.0
2018-Jun-14 14:00N 48°22' W 004°47'0 0.0
2018-Jun-14 13:30N 48°22' W 004°47'0 0.0
2018-Jun-14 13:00N 48°22' W 004°47'0 0.0
2018-Jun-14 12:30N 48°22' W 004°47'0 0.0
2018-Jun-14 12:00N 48°22' W 004°47'0 0.0
2018-Jun-14 11:30N 48°22' W 004°47'0 0.0
2018-Jun-14 11:00N 48°22' W 004°47'0 0.0
2018-Jun-14 10:30N 48°22' W 004°47'0 0.0
2018-Jun-14 10:00N 48°22' W 004°47'0 0.0
2018-Jun-14 09:30N 48°22' W 004°47'0 0.0
2018-Jun-14 09:00N 48°22' W 004°47'713.5
2018-Jun-14 08:30N 48°25' W 004°56'611.7
2018-Jun-14 08:01N 48°28' W 005°03'4 8.3
2018-Jun-14 07:30N 48°26' W 004°58'816.7
2018-Jun-14 07:00N 48°22' W 004°47'612.4
2018-Jun-14 06:31N 48°18' W 004°39'3 5.7
2018-Jun-14 06:00N 48°17' W 004°35'815.1
2018-Jun-14 05:30N 48°23' W 004°29'0 0.0
2018-Jun-13 08:54N 48°23' W 004°29'4 9.1
2018-Jun-13 08:31N 48°21' W 004°34'2 4.4
2018-Jun-13 08:00N 48°20' W 004°37'713.6
2018-Jun-13 07:30N 48°22' W 004°47'714.9
2018-Jun-13 07:00N 48°24' W 004°57'510.7
2018-Jun-13 06:30N 48°28' W 005°03'510.1
2018-Jun-13 06:01N 48°27' W 004°56'816.1
2018-Jun-13 05:30N 48°22' W 004°47'715.1
2018-Jun-13 05:01N 48°20' W 004°36'510.1
2018-Jun-13 04:30N 48°23' W 004°29'0 0.0
2018-Jun-11 17:30N 48°23' W 004°29'815.7
2018-Jun-11 17:01N 48°20' W 004°40'713.6
2018-Jun-11 16:31N 48°23' W 004°49'1121.2
2018-Jun-11 15:59N 48°28' W 005°03'2 4.1
2018-Jun-11 15:31N 48°28' W 005°00'612.9
2018-Jun-11 15:00N 48°23' W 004°53'5 9.1
2018-Jun-11 14:30N 48°22' W 004°47'0 0.0
2018-Jun-11 14:00N 48°22' W 004°47'0 0.0
2018-Jun-11 13:30N 48°22' W 004°47'0 0.0
2018-Jun-11 13:00N 48°22' W 004°47'0 0.0
2018-Jun-11 12:30N 48°22' W 004°47'0 0.0
2018-Jun-11 12:00N 48°22' W 004°47'0 0.0
2018-Jun-11 11:30N 48°22' W 004°47'0 0.0
2018-Jun-11 11:00N 48°22' W 004°47'0 0.0
2018-Jun-11 10:30N 48°22' W 004°47'0 0.0
2018-Jun-11 10:00N 48°22' W 004°47'0 0.0
2018-Jun-11 09:30N 48°22' W 004°47'0 0.0
2018-Jun-11 09:00N 48°22' W 004°47'611.4
2018-Jun-11 08:30N 48°24' W 004°54'612.1
2018-Jun-11 08:00N 48°28' W 005°01'3 5.9
2018-Jun-11 07:30N 48°26' W 004°58'713.3
2018-Jun-11 07:00N 48°23' W 004°49'2 4.4
2018-Jun-11 06:31N 48°21' W 004°47'1019.2
2018-Jun-11 06:01N 48°21' W 004°33'3 5.8
2018-Jun-11 05:31N 48°23' W 004°29'0 0.0
2018-Jun-11 05:01N 48°23' W 004°29'0 0.0
2018-Jun-10 18:46N 48°23' W 004°29'1 2.7
2018-Jun-10 18:30N 48°22' W 004°29'1020.6
2018-Jun-10 18:01N 48°19' W 004°44'611.2
2018-Jun-10 17:30N 48°23' W 004°50'510.6
2018-Jun-10 17:01N 48°26' W 004°57'5 7.9
2018-Jun-10 16:25N 48°28' W 005°03'4 9.7
2018-Jun-10 16:01N 48°26' W 004°58'612.3
2018-Jun-10 15:30N 48°23' W 004°50'3 5.4
2018-Jun-10 15:01N 48°22' W 004°47'3 6.8
2018-Jun-10 14:30N 48°24' W 004°50'10 9.5
2018-Jun-10 13:30N 48°28' W 005°03'0 0.0
2018-Jun-10 13:00N 48°28' W 005°03'0 0.0
2018-Jun-10 12:30N 48°28' W 005°03'0 0.0
2018-Jun-10 12:00N 48°28' W 005°03'0 0.0
2018-Jun-10 11:30N 48°28' W 005°03'0 0.0
2018-Jun-10 11:00N 48°28' W 005°03'0 0.0
2018-Jun-10 10:30N 48°28' W 005°03'2 4.2
2018-Jun-10 10:01N 48°28' W 005°00'612.0
2018-Jun-10 09:31N 48°24' W 004°53'5 9.5
2018-Jun-10 09:00N 48°22' W 004°47'613.0
2018-Jun-10 08:30N 48°24' W 004°55'611.6
2018-Jun-10 08:01N 48°28' W 005°02'3 5.7
2018-Jun-10 07:31N 48°27' W 004°58'918.8
2018-Jun-10 07:01N 48°22' W 004°47'2 4.8
2018-Jun-10 06:31N 48°19' W 004°46'1122.3
2018-Jun-10 06:01N 48°22' W 004°30'  

Dump ship's entire track history